Terminal Aerodrome Forecast
Issued by NWS

Home | Current Version | Previous Version | Graphics & Text | Print | Product List | Glossary On
Versions: 1 2 3 4 5 6 7 8 9 10 11 12
000
FTUS43 KICT 191100
TAFHUT
TAF
KHUT 191120Z 1912/2012 24011KT P6SM SCT100 BKN200
     FM191900 19014KT P6SM FEW200
     FM200100 17010KT P6SM SKC=

USA.gov is the U.S. government's official web portal to all federal, state and local government web resources and services.